KLBE/LBE METAR and TAF weather

Enter ICAO airport designator
Station Type Date Time Source
KLBE METAR 2019/04/22 19:50 UTC NOAA

KLBE 221950Z 23006KT 10SM SKC 16/07 A3017


Station Type Date Time Source
KLBE Decoded METAR 2019/04/22 19:50 UTC NOAA

Latrobe / Westmorland, PA, United States (KLBE) 40-17N 079-24W
Apr 22, 2019 - 03:50 PM EDT / 2019.04.22 1950 UTC
Wind: from the SW (230 degrees) at 7 MPH (6 KT):0
Visibility: 10 mile(s):0
Sky conditions: clear
Temperature: 60 F (16 C)
Dew Point: 44 F (7 C)
Relative Humidity: 55%
Pressure (altimeter): 30.17 in. Hg (1021 hPa)
ob: KLBE 221950Z 23006KT 10SM SKC 16/07 A3017
cycle: 20

Station Type Date Time Source
KLBE TAF 2019/04/22 19:54 UTC NOAA

TAF
AMD KLBE 221852Z 2219/2318 28005KT P6SM SKC
FM231500 22012G20KT P6SM BKN150

Example: see airport list